createdAt,value
2018-05-26T00:00:23.124Z,3.73
2018-05-26T00:02:51.765Z,3.50
2018-05-26T00:05:20.085Z,3.97
2018-05-26T00:07:48.423Z,3.80
2018-05-26T00:10:16.810Z,4.20
2018-05-26T00:12:45.122Z,4.17
2018-05-26T00:15:13.475Z,4.60
2018-05-26T00:17:41.832Z,4.63
2018-05-26T00:20:10.151Z,4.70
2018-05-26T00:22:38.454Z,4.40
2018-05-26T00:25:07.692Z,5.57
2018-05-26T00:27:36.009Z,4.10
2018-05-26T00:30:04.311Z,4.07
2018-05-26T00:32:33.474Z,4.40
2018-05-26T00:35:01.786Z,4.93
2018-05-26T00:37:33.911Z,4.40
2018-05-26T00:40:02.985Z,4.10
2018-05-26T00:42:31.310Z,3.93
2018-05-26T00:44:59.836Z,5.20
2018-05-26T00:47:28.151Z,4.93
2018-05-26T00:49:56.457Z,4.47
2018-05-26T00:52:24.805Z,4.63
2018-05-26T00:54:53.118Z,4.43
2018-05-26T00:57:21.467Z,4.40
2018-05-26T00:59:49.805Z,4.33
2018-05-26T01:02:18.116Z,4.50
2018-05-26T01:04:46.418Z,4.37
2018-05-26T01:07:15.016Z,4.43
2018-05-26T01:09:44.107Z,4.73
2018-05-26T01:12:13.246Z,4.30
2018-05-26T01:14:41.595Z,3.90
2018-05-26T01:17:10.707Z,4.77
2018-05-26T01:19:39.016Z,4.47
2018-05-26T01:22:07.472Z,4.43
2018-05-26T01:24:35.795Z,4.03
2018-05-26T01:27:04.126Z,4.27
2018-05-26T01:29:33.300Z,4.53
2018-05-26T01:32:02.402Z,4.10
2018-05-26T01:34:31.493Z,4.33
2018-05-26T01:36:59.838Z,5.07
2018-05-26T01:39:28.183Z,4.00
2018-05-26T01:41:56.480Z,4.77
2018-05-26T01:44:24.846Z,4.40
2018-05-26T01:46:53.176Z,4.50
2018-05-26T01:49:21.632Z,4.40
2018-05-26T01:51:50.068Z,4.20
2018-05-26T01:54:18.406Z,4.93
2018-05-26T01:56:46.722Z,4.20
2018-05-26T01:59:15.832Z,4.37
2018-05-26T02:01:44.141Z,4.27
2018-05-26T02:04:12.470Z,5.23
2018-05-26T02:06:41.583Z,5.80
2018-05-26T02:09:09.903Z,4.87
2018-05-26T02:11:38.234Z,4.27
2018-05-26T02:14:06.945Z,5.30
2018-05-26T02:16:35.267Z,4.70
2018-05-26T02:19:03.613Z,4.93
2018-05-26T02:21:31.962Z,4.20
2018-05-26T02:24:00.278Z,4.93
2018-05-26T02:26:28.599Z,5.00
2018-05-26T02:28:57.715Z,4.50
2018-05-26T02:31:26.046Z,5.07
2018-05-26T02:33:54.415Z,4.83
2018-05-26T02:36:23.139Z,4.53
2018-05-26T02:38:52.239Z,4.70
2018-05-26T02:41:21.335Z,4.90
2018-05-26T02:43:49.682Z,5.70
2018-05-26T02:46:18.033Z,6.20
2018-05-26T02:48:46.366Z,5.63
2018-05-26T02:51:15.056Z,5.83
2018-05-26T02:53:43.377Z,5.97
2018-05-26T02:56:11.714Z,5.63
2018-05-26T02:58:40.922Z,5.30
2018-05-26T03:01:09.289Z,5.30
2018-05-26T03:03:38.395Z,5.50
2018-05-26T03:06:12.753Z,6.23
2018-05-26T03:08:47.146Z,6.13
2018-05-26T03:11:21.072Z,6.40
2018-05-26T03:13:54.835Z,5.80
2018-05-26T03:16:28.664Z,5.90
2018-05-26T03:18:56.979Z,5.80
2018-05-26T03:21:25.295Z,6.70
2018-05-26T03:23:53.678Z,5.77
2018-05-26T03:26:21.991Z,6.10
2018-05-26T03:28:50.327Z,5.80
2018-05-26T03:31:18.697Z,6.83
2018-05-26T03:33:47.327Z,6.57
2018-05-26T03:36:15.729Z,6.63
2018-05-26T03:38:44.259Z,5.70
2018-05-26T03:41:12.595Z,5.53
2018-05-26T03:43:40.895Z,5.40
2018-05-26T03:46:09.260Z,6.23
2018-05-26T03:48:37.579Z,5.43
2018-05-26T03:51:05.908Z,5.63
2018-05-26T03:53:35.504Z,5.97
2018-05-26T03:56:21.530Z,6.20
2018-05-26T03:59:07.561Z,6.27
2018-05-26T04:01:35.915Z,6.67
2018-05-26T04:04:04.215Z,6.07
2018-05-26T04:06:33.400Z,6.50
2018-05-26T04:09:02.495Z,5.80
2018-05-26T04:11:30.811Z,6.70
2018-05-26T04:13:59.184Z,5.90
2018-05-26T04:16:27.496Z,6.60
2018-05-26T04:18:55.850Z,6.20
2018-05-26T04:21:24.485Z,6.60
2018-05-26T04:23:52.797Z,6.10
2018-05-26T04:26:21.151Z,6.50
2018-05-26T04:28:49.483Z,6.20
2018-05-26T04:31:18.571Z,7.00
2018-05-26T04:33:46.899Z,7.30
2018-05-26T04:36:15.219Z,6.60
2018-05-26T04:38:43.547Z,7.50
2018-05-26T04:41:11.867Z,6.70
2018-05-26T04:43:41.023Z,6.03
2018-05-26T04:46:09.318Z,6.67
2018-05-26T04:48:37.655Z,6.27
2018-05-26T04:51:06.004Z,6.63
2018-05-26T04:53:36.435Z,6.33
2018-05-26T04:56:04.791Z,6.60
2018-05-26T04:58:33.961Z,6.50
2018-05-26T05:01:02.351Z,6.70
2018-05-26T05:03:30.659Z,6.30
2018-05-26T05:05:59.959Z,7.00
2018-05-26T05:08:28.334Z,6.70
2018-05-26T05:10:56.685Z,6.20
2018-05-26T05:13:25.061Z,7.00
2018-05-26T05:15:53.407Z,6.17
2018-05-26T05:18:21.741Z,6.63
2018-05-26T05:20:50.890Z,6.30
2018-05-26T05:23:19.212Z,6.40
2018-05-26T05:25:47.571Z,6.27
2018-05-26T05:28:16.027Z,6.33
2018-05-26T05:30:44.351Z,6.70
2018-05-26T05:33:12.703Z,6.23
2018-05-26T05:35:41.065Z,6.60
2018-05-26T05:38:09.377Z,6.70
2018-05-26T05:40:37.708Z,5.90
2018-05-26T05:43:06.073Z,6.90
2018-05-26T05:45:34.420Z,6.83
2018-05-26T05:48:02.730Z,6.80
2018-05-26T05:50:31.240Z,6.40
2018-05-26T05:52:59.584Z,6.53
2018-05-26T05:55:27.936Z,5.73
2018-05-26T05:57:56.317Z,6.37
2018-05-26T06:00:24.665Z,6.80
2018-05-26T06:02:53.009Z,5.57
2018-05-26T06:05:21.378Z,7.20
2018-05-26T06:07:49.739Z,6.23
2018-05-26T06:10:18.850Z,5.80
2018-05-26T06:12:48.432Z,6.50
2018-05-26T06:15:16.777Z,6.13
2018-05-26T06:17:45.103Z,6.10
2018-05-26T06:20:14.256Z,5.40
2018-05-26T06:22:42.552Z,6.60
2018-05-26T06:25:10.895Z,5.70
2018-05-26T06:27:39.221Z,6.80
2018-05-26T06:30:09.225Z,6.30
2018-05-26T06:32:37.552Z,6.07
2018-05-26T06:35:06.297Z,6.53
2018-05-26T06:37:34.642Z,5.70
2018-05-26T06:40:03.043Z,6.37
2018-05-26T06:42:31.385Z,6.17
2018-05-26T06:44:59.732Z,5.03
2018-05-26T06:47:28.091Z,5.20
2018-05-26T06:50:12.810Z,5.87
2018-05-26T06:52:41.130Z,6.03
2018-05-26T06:55:09.454Z,5.77
2018-05-26T06:57:37.839Z,6.13
2018-05-26T07:00:06.930Z,5.60
2018-05-26T07:02:35.254Z,5.77
2018-05-26T07:05:03.585Z,6.20
2018-05-26T07:07:32.679Z,5.87
2018-05-26T07:10:01.835Z,5.60
2018-05-26T07:12:30.666Z,5.73
2018-05-26T07:14:58.973Z,6.10
2018-05-26T07:17:28.308Z,5.77
2018-05-26T07:19:56.655Z,5.40
2018-05-26T07:22:25.031Z,6.10
2018-05-26T07:24:53.380Z,5.87
2018-05-26T07:27:22.482Z,4.63
2018-05-26T07:29:51.570Z,4.40
2018-05-26T07:32:20.671Z,5.03
2018-05-26T07:34:50.083Z,5.47
2018-05-26T07:37:19.200Z,5.87
2018-05-26T07:39:47.546Z,5.60
2018-05-26T07:42:16.695Z,6.00
2018-05-26T07:44:45.018Z,4.97
2018-05-26T07:47:13.357Z,5.73
2018-05-26T07:49:41.791Z,5.90
2018-05-26T07:52:10.246Z,4.97
2018-05-26T07:54:38.688Z,6.10
2018-05-26T07:57:08.268Z,5.77
2018-05-26T07:59:36.602Z,5.20
2018-05-26T08:02:04.944Z,6.10
2018-05-26T08:04:33.330Z,6.37
2018-05-26T08:07:01.668Z,7.53
2018-05-26T08:09:30.771Z,5.53
2018-05-26T08:11:59.889Z,5.50
2018-05-26T08:14:28.202Z,5.30
2018-05-26T08:16:56.561Z,5.83
2018-05-26T08:19:25.244Z,5.87
2018-05-26T08:21:53.547Z,6.83
2018-05-26T08:24:21.866Z,6.17
2018-05-26T08:26:50.985Z,6.47
2018-05-26T08:29:19.320Z,6.37
2018-05-26T08:31:47.673Z,6.03
2018-05-26T08:34:16.016Z,5.50
2018-05-26T08:36:44.611Z,6.23
2018-05-26T08:39:13.009Z,5.47
2018-05-26T08:41:41.465Z,5.63
2018-05-26T08:44:09.810Z,5.70
2018-05-26T08:46:38.931Z,6.00
2018-05-26T08:49:07.295Z,5.80
2018-05-26T08:51:36.430Z,6.20
2018-05-26T08:54:04.754Z,6.00
2018-05-26T08:56:33.119Z,5.33
2018-05-26T08:59:02.265Z,5.80
2018-05-26T09:01:30.670Z,4.70
2018-05-26T09:03:59.546Z,5.43
2018-05-26T09:06:27.948Z,5.60
2018-05-26T09:08:57.030Z,5.60
2018-05-26T09:11:25.420Z,5.03
2018-05-26T09:13:53.767Z,5.20
2018-05-26T09:16:22.111Z,6.23
2018-05-26T09:18:51.264Z,5.43
2018-05-26T09:21:19.621Z,5.77
2018-05-26T09:23:47.980Z,5.70
2018-05-26T09:26:16.363Z,5.50
2018-05-26T09:28:45.433Z,5.50
2018-05-26T09:31:13.780Z,5.50
2018-05-26T09:33:42.151Z,5.37
2018-05-26T09:36:10.572Z,5.67
2018-05-26T09:38:38.891Z,5.20
2018-05-26T09:41:08.011Z,5.10
2018-05-26T09:43:36.370Z,4.57
2018-05-26T09:46:05.464Z,5.70
2018-05-26T09:48:33.921Z,5.20
2018-05-26T09:51:02.230Z,5.87
2018-05-26T09:53:30.580Z,5.87
2018-05-26T09:55:59.747Z,5.50
2018-05-26T09:58:28.067Z,5.20
2018-05-26T10:00:57.173Z,4.67
2018-05-26T10:03:26.341Z,5.10
2018-05-26T10:05:54.877Z,5.07
2018-05-26T10:08:23.225Z,4.17
2018-05-26T10:10:53.044Z,4.60
2018-05-26T10:13:21.452Z,4.67
2018-05-26T10:15:49.807Z,5.33
2018-05-26T10:18:18.974Z,4.53
2018-05-26T10:20:47.333Z,5.00
2018-05-26T10:23:15.733Z,5.00
2018-05-26T10:25:44.098Z,4.70
2018-05-26T10:28:12.423Z,4.70
2018-05-26T10:30:41.548Z,5.03
2018-05-26T10:33:10.205Z,4.50
2018-05-26T10:35:38.655Z,5.20
2018-05-26T10:38:06.994Z,4.90
2018-05-26T10:40:35.400Z,4.93
2018-05-26T10:43:03.746Z,4.60
2018-05-26T10:45:39.884Z,4.60
2018-05-26T10:48:08.240Z,5.10
2018-05-26T10:50:37.340Z,4.17
2018-05-26T10:53:11.492Z,4.00
2018-05-26T11:01:29.293Z,4.23
2018-05-26T11:03:58.462Z,4.50
2018-05-26T11:06:26.801Z,3.80
2018-05-26T11:08:55.151Z,4.37
2018-05-26T11:11:23.582Z,4.00
2018-05-26T11:13:52.656Z,4.20
2018-05-26T11:16:21.115Z,4.20
2018-05-26T11:18:50.155Z,3.50
2018-05-26T11:21:18.475Z,4.17
2018-05-26T11:23:46.784Z,3.93
2018-05-26T11:26:15.148Z,4.30
2018-05-26T11:28:44.238Z,3.70
2018-05-26T11:31:12.575Z,3.87
2018-05-26T11:33:41.223Z,4.00
2018-05-26T11:36:10.343Z,4.20
2018-05-26T11:38:39.451Z,3.93
2018-05-26T11:41:07.868Z,3.70
2018-05-26T11:43:36.301Z,4.00
2018-05-26T11:46:04.714Z,4.50
2018-05-26T11:48:33.056Z,4.27
2018-05-26T11:51:02.158Z,4.40
2018-05-26T11:53:30.507Z,4.03
2018-05-26T11:55:58.940Z,3.73
2018-05-26T11:58:27.309Z,3.87
2018-05-26T12:00:55.651Z,3.90
2018-05-26T12:03:24.743Z,3.57
2018-05-26T12:05:53.091Z,3.57
2018-05-26T12:08:21.416Z,3.50
2018-05-26T12:10:50.600Z,3.30
2018-05-26T12:13:18.924Z,3.60
2018-05-26T12:15:47.265Z,4.00
2018-05-26T12:18:16.582Z,3.70
2018-05-26T12:20:44.897Z,3.17
2018-05-26T12:23:13.212Z,3.83
2018-05-26T12:25:41.604Z,4.00
2018-05-26T12:28:10.721Z,3.57
2018-05-26T12:30:39.040Z,3.47
2018-05-26T12:33:07.515Z,3.93
2018-05-26T12:35:36.139Z,4.73
2018-05-26T12:38:04.501Z,3.83
2018-05-26T12:40:32.960Z,4.27
2018-05-26T12:43:01.270Z,4.50
2018-05-26T12:45:29.597Z,4.43
2018-05-26T12:47:58.408Z,4.43
2018-05-26T12:50:26.781Z,4.47
2018-05-26T12:52:55.099Z,3.93
2018-05-26T12:55:24.241Z,4.47
2018-05-26T12:57:52.734Z,3.80
2018-05-26T13:00:21.096Z,4.17
2018-05-26T13:02:49.797Z,4.63
2018-05-26T13:05:18.134Z,4.23
2018-05-26T13:07:47.416Z,3.87
2018-05-26T13:10:15.903Z,3.77
2018-05-26T13:12:44.278Z,4.10
2018-05-26T13:15:12.679Z,3.17
2018-05-26T13:17:41.869Z,3.73
2018-05-26T13:20:10.381Z,3.80
2018-05-26T13:22:38.792Z,3.43
2018-05-26T13:25:07.881Z,4.40
2018-05-26T13:27:36.307Z,4.17
2018-05-26T13:30:04.663Z,4.20
2018-05-26T13:32:33.030Z,4.67
2018-05-26T13:35:01.425Z,3.80
2018-05-26T13:37:29.918Z,4.00
2018-05-26T13:39:58.307Z,4.23
2018-05-26T13:42:27.491Z,4.13
2018-05-26T13:44:55.971Z,5.27
2018-05-26T13:47:24.772Z,4.20
2018-05-26T13:49:53.152Z,4.70
2018-05-26T13:52:21.542Z,4.03
2018-05-26T13:54:50.774Z,4.67
2018-05-26T13:57:19.305Z,4.60
2018-05-26T13:59:48.570Z,3.90
2018-05-26T14:02:16.990Z,3.57
2018-05-26T14:04:45.358Z,3.63
2018-05-26T14:07:13.764Z,3.97
2018-05-26T14:09:42.224Z,4.23
2018-05-26T14:12:10.601Z,4.00
2018-05-26T14:14:38.921Z,3.80
2018-05-26T14:17:07.333Z,4.37
2018-05-26T14:19:36.456Z,3.30
2018-05-26T14:22:04.795Z,3.80
2018-05-26T14:24:33.132Z,3.50
2018-05-26T14:27:01.461Z,3.70
2018-05-26T14:29:29.783Z,4.07
2018-05-26T14:31:59.232Z,2.97
2018-05-26T14:34:27.557Z,3.20
2018-05-26T14:36:55.889Z,3.30
2018-05-26T14:39:24.318Z,3.30
2018-05-26T14:41:53.436Z,2.90
2018-05-26T14:44:22.520Z,2.63
2018-05-26T14:46:51.664Z,2.80
2018-05-26T14:49:19.996Z,2.60
2018-05-26T14:51:48.342Z,2.90
2018-05-26T14:54:16.866Z,3.00
2018-05-26T14:56:45.946Z,2.60
2018-05-26T14:59:14.270Z,2.80
2018-05-26T15:01:42.591Z,2.53
2018-05-26T15:04:10.957Z,2.60
2018-05-26T15:06:39.315Z,3.03
2018-05-26T15:09:07.724Z,3.37
2018-05-26T15:11:36.858Z,2.43
2018-05-26T15:14:05.189Z,2.77
2018-05-26T15:16:33.749Z,3.10
2018-05-26T15:19:02.075Z,2.43
2018-05-26T15:21:30.431Z,2.40
2018-05-26T15:23:58.784Z,2.47
2018-05-26T15:26:27.142Z,2.17
2018-05-26T15:28:55.465Z,2.30
2018-05-26T15:31:23.844Z,3.17
2018-05-26T15:33:52.164Z,2.67
2018-05-26T15:36:21.271Z,2.60
2018-05-26T15:38:49.702Z,2.43
2018-05-26T15:41:18.045Z,2.87
2018-05-26T15:43:46.353Z,2.70
2018-05-26T15:46:14.741Z,2.47
2018-05-26T15:48:43.080Z,3.40
2018-05-26T15:51:11.388Z,2.50
2018-05-26T15:53:39.711Z,3.03
2018-05-26T15:56:08.087Z,2.90
2018-05-26T15:58:37.211Z,3.50
2018-05-26T16:01:05.974Z,3.07
2018-05-26T16:03:34.326Z,3.57
2018-05-26T16:06:02.661Z,4.40
2018-05-26T16:08:31.036Z,3.27
2018-05-26T16:10:59.523Z,2.57
2018-05-26T16:13:27.870Z,3.27
2018-05-26T16:15:56.969Z,3.30
2018-05-26T16:18:26.071Z,3.20
2018-05-26T16:20:54.397Z,3.23
2018-05-26T16:23:22.849Z,3.03
2018-05-26T16:25:51.238Z,3.40
2018-05-26T16:28:19.530Z,3.23
2018-05-26T16:30:48.642Z,3.10
2018-05-26T16:33:16.948Z,3.37
2018-05-26T16:35:46.040Z,3.10
2018-05-26T16:38:15.180Z,3.50
2018-05-26T16:40:43.516Z,2.90
2018-05-26T16:43:11.926Z,2.80
2018-05-26T16:45:40.422Z,3.47
2018-05-26T16:48:08.759Z,3.33
2018-05-26T16:50:37.140Z,3.40
2018-05-26T16:53:06.299Z,3.60
2018-05-26T16:55:34.629Z,3.53
2018-05-26T16:58:03.003Z,3.20
2018-05-26T17:00:31.579Z,3.07
2018-05-26T17:02:59.954Z,2.63
2018-05-26T17:05:29.116Z,3.47
2018-05-26T17:07:57.753Z,3.13
2018-05-26T17:10:26.074Z,3.23
2018-05-26T17:12:54.382Z,4.93
2018-05-26T17:15:22.720Z,3.87
2018-05-26T17:17:51.044Z,3.30
2018-05-26T17:20:19.382Z,3.40
2018-05-26T17:22:47.719Z,3.60
2018-05-26T17:25:16.837Z,2.60
2018-05-26T17:27:45.164Z,3.33
2018-05-26T17:30:13.929Z,3.20
2018-05-26T17:32:42.236Z,3.10
2018-05-26T17:35:10.686Z,3.00
2018-05-26T17:37:39.053Z,2.80
2018-05-26T17:40:07.366Z,2.77
2018-05-26T17:42:35.710Z,2.43
2018-05-26T17:45:04.045Z,3.23
2018-05-26T17:47:32.384Z,2.80
2018-05-26T17:50:00.738Z,3.30
2018-05-26T17:52:29.184Z,3.10
2018-05-26T17:54:58.291Z,3.30
2018-05-26T17:57:26.627Z,2.90
2018-05-26T17:59:55.016Z,3.67
2018-05-26T18:02:23.388Z,4.10
2018-05-26T18:04:51.718Z,3.70
2018-05-26T18:07:20.077Z,2.93
2018-05-26T18:09:49.196Z,3.50
2018-05-26T18:12:17.525Z,3.57
2018-05-26T18:14:46.152Z,4.27
2018-05-26T18:17:14.524Z,6.13
2018-05-26T18:19:42.837Z,3.50
2018-05-26T18:22:11.303Z,3.40
2018-05-26T18:24:39.620Z,3.00
2018-05-26T18:27:07.949Z,4.00
2018-05-26T18:29:37.040Z,3.13
2018-05-26T18:32:06.147Z,3.53
2018-05-26T18:34:34.461Z,4.00
2018-05-26T18:37:03.181Z,5.00
2018-05-26T18:39:31.524Z,4.50
2018-05-26T18:41:59.893Z,3.70
2018-05-26T18:44:28.266Z,3.73
2018-05-26T18:46:56.835Z,4.30
2018-05-26T18:49:25.306Z,4.07
2018-05-26T18:51:53.661Z,4.13
2018-05-26T18:54:21.983Z,3.77
2018-05-26T18:56:50.296Z,4.07
2018-05-26T18:59:18.748Z,3.50
2018-05-26T19:01:47.095Z,3.70
2018-05-26T19:04:15.680Z,4.00
2018-05-26T19:06:44.010Z,3.80
2018-05-26T19:09:12.346Z,3.70
2018-05-26T19:11:40.682Z,3.70
2018-05-26T19:14:09.054Z,3.50
2018-05-26T19:16:37.378Z,2.53
2018-05-26T19:19:05.726Z,3.40
2018-05-26T19:21:34.316Z,3.23
2018-05-26T19:24:03.421Z,4.07
2018-05-26T19:26:31.792Z,4.07
2018-05-26T19:29:00.220Z,4.17
2018-05-26T19:31:28.583Z,3.97
2018-05-26T19:33:56.945Z,3.70
2018-05-26T19:36:25.376Z,3.73
2018-05-26T19:38:53.730Z,3.70
2018-05-26T19:41:22.080Z,4.43
2018-05-26T19:43:50.679Z,2.87
2018-05-26T19:46:18.994Z,4.07
2018-05-26T19:48:47.330Z,3.90
2018-05-26T19:51:15.868Z,2.80
2018-05-26T19:53:44.223Z,3.50
2018-05-26T19:56:13.152Z,3.13
2018-05-26T19:58:41.532Z,3.97
2018-05-26T20:01:10.646Z,4.50
2018-05-26T20:03:39.743Z,3.87
2018-05-26T20:06:08.939Z,3.83
2018-05-26T20:08:38.205Z,3.70
2018-05-26T20:11:06.564Z,4.37
2018-05-26T20:13:34.951Z,5.60
2018-05-26T20:16:03.324Z,4.90
2018-05-26T20:18:31.660Z,4.70
2018-05-26T20:21:00.792Z,4.30
2018-05-26T20:23:29.141Z,4.10
2018-05-26T20:25:58.285Z,3.80
2018-05-26T20:28:26.816Z,4.63
2018-05-26T20:30:55.940Z,3.73
2018-05-26T20:33:24.315Z,3.93
2018-05-26T20:35:52.779Z,4.70
2018-05-26T20:38:21.233Z,4.20
2018-05-26T20:40:49.580Z,4.30
2018-05-26T20:43:18.121Z,4.10
2018-05-26T20:45:47.275Z,4.53
2018-05-26T20:48:15.719Z,4.53
2018-05-26T20:50:44.185Z,4.63
2018-05-26T20:53:12.611Z,4.57
2018-05-26T20:55:40.946Z,4.60
2018-05-26T20:58:09.452Z,4.80
2018-05-26T21:00:37.775Z,4.37
2018-05-26T21:03:07.525Z,9.40
2018-05-26T21:05:35.967Z,17.90
2018-05-26T21:08:04.389Z,23.10
2018-05-26T21:10:32.806Z,16.60
2018-05-26T21:13:02.110Z,15.17
2018-05-26T21:15:30.474Z,9.70
2018-05-26T21:17:58.844Z,7.07
2018-05-26T21:20:27.210Z,6.50
2018-05-26T21:22:55.581Z,6.00
2018-05-26T21:25:23.901Z,6.33
2018-05-26T21:27:52.314Z,6.23
2018-05-26T21:30:20.631Z,6.00
2018-05-26T21:32:48.974Z,5.93
2018-05-26T21:35:18.155Z,5.00
2018-05-26T21:37:46.480Z,5.67
2018-05-26T21:40:14.973Z,6.37
2018-05-26T21:42:43.350Z,5.97
2018-05-26T21:45:11.699Z,6.07
2018-05-26T21:47:40.043Z,6.90
2018-05-26T21:50:08.424Z,7.30
2018-05-26T21:52:36.835Z,6.50
2018-05-26T21:55:05.942Z,6.60
2018-05-26T21:57:34.423Z,6.60
2018-05-26T22:00:02.796Z,7.33
2018-05-26T22:02:31.159Z,7.60
2018-05-26T22:05:00.296Z,6.80
2018-05-26T22:07:28.596Z,6.97
2018-05-26T22:09:56.903Z,7.67
2018-05-26T22:12:25.249Z,6.90
2018-05-26T22:14:53.580Z,7.30
2018-05-26T22:17:22.701Z,6.80
2018-05-26T22:19:51.482Z,7.07
2018-05-26T22:22:19.824Z,12.80
2018-05-26T22:24:48.169Z,7.27
2018-05-26T22:27:16.539Z,7.87
2018-05-26T22:29:44.883Z,8.33
2018-05-26T22:32:14.056Z,7.93
2018-05-26T22:34:42.404Z,7.73
2018-05-26T22:37:10.750Z,7.50
2018-05-26T22:39:39.077Z,8.10
2018-05-26T22:42:07.467Z,7.10
2018-05-26T22:44:35.783Z,8.17
2018-05-26T22:47:04.890Z,7.23
2018-05-26T22:49:33.255Z,9.43
2018-05-26T22:52:01.583Z,7.13
2018-05-26T22:54:29.907Z,8.63
2018-05-26T22:56:59.190Z,9.60
2018-05-26T22:59:28.303Z,8.60
2018-05-26T23:01:57.808Z,8.77
2018-05-26T23:04:27.087Z,9.00
2018-05-26T23:06:56.246Z,8.67
2018-05-26T23:09:24.567Z,9.80
2018-05-26T23:11:53.710Z,9.53
2018-05-26T23:14:22.002Z,9.13
2018-05-26T23:16:50.340Z,9.00
2018-05-26T23:19:18.695Z,9.00
2018-05-26T23:21:47.008Z,9.87
2018-05-26T23:24:15.356Z,10.07
2018-05-26T23:26:44.696Z,9.43
2018-05-26T23:29:13.051Z,10.43
2018-05-26T23:31:42.141Z,10.00
2018-05-26T23:34:10.488Z,10.50
2018-05-26T23:36:38.804Z,9.47
2018-05-26T23:39:07.887Z,10.43
2018-05-26T23:41:36.997Z,10.17
2018-05-26T23:44:06.097Z,10.50
2018-05-26T23:46:35.217Z,10.30
2018-05-26T23:49:03.671Z,10.63
2018-05-26T23:51:32.775Z,10.97
2018-05-26T23:54:01.111Z,10.20
2018-05-26T23:56:29.452Z,11.00
2018-05-26T23:58:57.799Z,11.20
